sensor_id;sensor_type;location;lat;lon;timestamp;temperature;humidity
61253;DHT22;47127;47.516;8.596;2023-11-22T00:01:49;8.50;99.90
61253;DHT22;47127;47.516;8.596;2023-11-22T00:04:14;8.40;99.90
61253;DHT22;47127;47.516;8.596;2023-11-22T00:06:40;8.30;99.90
61253;DHT22;47127;47.516;8.596;2023-11-22T00:09:05;8.20;99.90
61253;DHT22;47127;47.516;8.596;2023-11-22T00:11:32;8.20;99.90
61253;DHT22;47127;47.516;8.596;2023-11-22T00:13:57;8.20;99.90
61253;DHT22;47127;47.516;8.596;2023-11-22T00:16:23;8.20;99.90
61253;DHT22;47127;47.516;8.596;2023-11-22T00:18:49;8.20;99.90
61253;DHT22;47127;47.516;8.596;2023-11-22T00:21:15;8.10;99.90
61253;DHT22;47127;47.516;8.596;2023-11-22T00:23:40;8.20;99.90
61253;DHT22;47127;47.516;8.596;2023-11-22T00:26:06;8.20;99.90
61253;DHT22;47127;47.516;8.596;2023-11-22T00:28:32;8.20;99.90
61253;DHT22;47127;47.516;8.596;2023-11-22T00:30:58;8.30;99.90
61253;DHT22;47127;47.516;8.596;2023-11-22T00:33:24;8.40;99.90
61253;DHT22;47127;47.516;8.596;2023-11-22T00:35:49;8.40;99.90
61253;DHT22;47127;47.516;8.596;2023-11-22T00:38:15;8.40;99.90
61253;DHT22;47127;47.516;8.596;2023-11-22T00:40:43;8.40;99.90
61253;DHT22;47127;47.516;8.596;2023-11-22T00:43:08;8.50;99.90
61253;DHT22;47127;47.516;8.596;2023-11-22T00:45:34;8.40;99.90
61253;DHT22;47127;47.516;8.596;2023-11-22T00:48:00;8.40;99.90
61253;DHT22;47127;47.516;8.596;2023-11-22T00:50:26;8.40;99.90
61253;DHT22;47127;47.516;8.596;2023-11-22T00:52:51;8.30;99.90
61253;DHT22;47127;47.516;8.596;2023-11-22T00:55:17;8.30;99.90
61253;DHT22;47127;47.516;8.596;2023-11-22T00:57:43;8.30;99.90
61253;DHT22;47127;47.516;8.596;2023-11-22T01:00:09;8.30;99.90
61253;DHT22;47127;47.516;8.596;2023-11-22T01:02:35;8.30;99.90
61253;DHT22;47127;47.516;8.596;2023-11-22T01:05:08;8.20;99.90
61253;DHT22;47127;47.516;8.596;2023-11-22T01:07:37;8.20;99.90
61253;DHT22;47127;47.516;8.596;2023-11-22T01:10:03;8.20;99.90
61253;DHT22;47127;47.516;8.596;2023-11-22T01:12:29;8.30;99.90
61253;DHT22;47127;47.516;8.596;2023-11-22T01:14:55;8.30;99.90
61253;DHT22;47127;47.516;8.596;2023-11-22T01:17:20;8.40;99.90
61253;DHT22;47127;47.516;8.596;2023-11-22T01:19:46;8.40;99.90
61253;DHT22;47127;47.516;8.596;2023-11-22T01:22:11;8.40;99.90
61253;DHT22;47127;47.516;8.596;2023-11-22T01:24:37;8.30;99.90
61253;DHT22;47127;47.516;8.596;2023-11-22T01:27:03;8.40;99.90
61253;DHT22;47127;47.516;8.596;2023-11-22T01:29:29;8.40;99.90
61253;DHT22;47127;47.516;8.596;2023-11-22T01:31:54;8.30;99.90
61253;DHT22;47127;47.516;8.596;2023-11-22T01:34:20;8.30;99.90
61253;DHT22;47127;47.516;8.596;2023-11-22T01:36:49;8.30;99.90
61253;DHT22;47127;47.516;8.596;2023-11-22T01:39:15;8.30;99.90
61253;DHT22;47127;47.516;8.596;2023-11-22T01:41:44;8.30;99.90
61253;DHT22;47127;47.516;8.596;2023-11-22T01:44:09;8.30;99.90
61253;DHT22;47127;47.516;8.596;2023-11-22T01:46:35;8.30;99.90
61253;DHT22;47127;47.516;8.596;2023-11-22T01:49:01;8.30;99.90
61253;DHT22;47127;47.516;8.596;2023-11-22T01:51:26;8.30;99.90
61253;DHT22;47127;47.516;8.596;2023-11-22T01:53:55;8.30;99.90
61253;DHT22;47127;47.516;8.596;2023-11-22T01:56:26;8.30;99.90
61253;DHT22;47127;47.516;8.596;2023-11-22T01:58:57;8.30;99.90
61253;DHT22;47127;47.516;8.596;2023-11-22T02:01:26;8.20;99.90
61253;DHT22;47127;47.516;8.596;2023-11-22T02:03:52;8.30;99.90
61253;DHT22;47127;47.516;8.596;2023-11-22T02:06:19;8.30;99.90
61253;DHT22;47127;47.516;8.596;2023-11-22T02:08:46;8.30;99.90
61253;DHT22;47127;47.516;8.596;2023-11-22T02:11:12;8.30;99.90
61253;DHT22;47127;47.516;8.596;2023-11-22T02:13:37;8.20;99.90
61253;DHT22;47127;47.516;8.596;2023-11-22T02:16:03;8.20;99.90
61253;DHT22;47127;47.516;8.596;2023-11-22T02:18:29;8.30;99.90
61253;DHT22;47127;47.516;8.596;2023-11-22T02:20:55;8.20;99.90
61253;DHT22;47127;47.516;8.596;2023-11-22T02:23:21;8.20;99.90
61253;DHT22;47127;47.516;8.596;2023-11-22T02:25:47;8.20;99.90
61253;DHT22;47127;47.516;8.596;2023-11-22T02:28:12;8.20;99.90
61253;DHT22;47127;47.516;8.596;2023-11-22T02:30:39;8.20;99.90
61253;DHT22;47127;47.516;8.596;2023-11-22T02:33:04;8.20;99.90
61253;DHT22;47127;47.516;8.596;2023-11-22T02:35:30;8.20;99.90
61253;DHT22;47127;47.516;8.596;2023-11-22T02:38:00;8.20;99.90
61253;DHT22;47127;47.516;8.596;2023-11-22T02:40:25;8.20;99.90
61253;DHT22;47127;47.516;8.596;2023-11-22T02:42:53;8.10;99.90
61253;DHT22;47127;47.516;8.596;2023-11-22T02:45:20;8.20;99.90
61253;DHT22;47127;47.516;8.596;2023-11-22T02:47:48;8.20;99.90
61253;DHT22;47127;47.516;8.596;2023-11-22T02:50:15;8.20;99.90
61253;DHT22;47127;47.516;8.596;2023-11-22T02:52:41;8.20;99.90
61253;DHT22;47127;47.516;8.596;2023-11-22T02:55:08;8.30;99.90
61253;DHT22;47127;47.516;8.596;2023-11-22T02:57:40;8.30;99.90
61253;DHT22;47127;47.516;8.596;2023-11-22T03:00:06;8.30;99.90
61253;DHT22;47127;47.516;8.596;2023-11-22T03:02:33;8.20;99.90
61253;DHT22;47127;47.516;8.596;2023-11-22T03:04:59;8.20;99.90
61253;DHT22;47127;47.516;8.596;2023-11-22T03:07:26;8.30;99.90
61253;DHT22;47127;47.516;8.596;2023-11-22T03:09:52;8.40;99.90
61253;DHT22;47127;47.516;8.596;2023-11-22T03:12:18;8.40;99.90
61253;DHT22;47127;47.516;8.596;2023-11-22T03:14:48;8.40;99.90
61253;DHT22;47127;47.516;8.596;2023-11-22T03:17:16;8.40;99.90
61253;DHT22;47127;47.516;8.596;2023-11-22T03:19:43;8.40;99.90
61253;DHT22;47127;47.516;8.596;2023-11-22T03:22:09;8.40;99.90
61253;DHT22;47127;47.516;8.596;2023-11-22T03:24:35;8.40;99.90
61253;DHT22;47127;47.516;8.596;2023-11-22T03:27:02;8.30;99.90
61253;DHT22;47127;47.516;8.596;2023-11-22T03:29:28;8.20;99.90
61253;DHT22;47127;47.516;8.596;2023-11-22T03:31:54;8.20;99.90
61253;DHT22;47127;47.516;8.596;2023-11-22T03:34:20;8.20;99.90
61253;DHT22;47127;47.516;8.596;2023-11-22T03:36:46;8.20;99.90
61253;DHT22;47127;47.516;8.596;2023-11-22T03:39:12;8.10;99.90
61253;DHT22;47127;47.516;8.596;2023-11-22T03:41:40;8.10;99.90
61253;DHT22;47127;47.516;8.596;2023-11-22T03:44:06;8.10;99.90
61253;DHT22;47127;47.516;8.596;2023-11-22T03:46:38;8.00;99.90
61253;DHT22;47127;47.516;8.596;2023-11-22T03:49:07;8.30;99.90
61253;DHT22;47127;47.516;8.596;2023-11-22T03:51:33;8.10;99.90
61253;DHT22;47127;47.516;8.596;2023-11-22T03:53:59;8.10;99.90
61253;DHT22;47127;47.516;8.596;2023-11-22T03:56:26;8.20;99.90
61253;DHT22;47127;47.516;8.596;2023-11-22T03:58:52;8.10;99.90
61253;DHT22;47127;47.516;8.596;2023-11-22T04:01:18;8.10;99.90
61253;DHT22;47127;47.516;8.596;2023-11-22T04:03:44;8.20;99.90
61253;DHT22;47127;47.516;8.596;2023-11-22T04:06:10;8.20;99.90
61253;DHT22;47127;47.516;8.596;2023-11-22T04:08:36;8.20;99.90
61253;DHT22;47127;47.516;8.596;2023-11-22T04:11:03;8.20;99.90
61253;DHT22;47127;47.516;8.596;2023-11-22T04:13:29;8.30;99.90
61253;DHT22;47127;47.516;8.596;2023-11-22T04:15:56;8.30;99.90
61253;DHT22;47127;47.516;8.596;2023-11-22T04:18:21;8.20;99.90
61253;DHT22;47127;47.516;8.596;2023-11-22T04:20:47;8.30;99.90
61253;DHT22;47127;47.516;8.596;2023-11-22T04:23:13;8.40;99.90
61253;DHT22;47127;47.516;8.596;2023-11-22T04:25:41;8.40;99.90
61253;DHT22;47127;47.516;8.596;2023-11-22T04:28:07;8.30;99.90
61253;DHT22;47127;47.516;8.596;2023-11-22T04:30:34;8.30;99.90
61253;DHT22;47127;47.516;8.596;2023-11-22T04:32:59;8.30;99.90
61253;DHT22;47127;47.516;8.596;2023-11-22T04:35:25;8.10;99.90
61253;DHT22;47127;47.516;8.596;2023-11-22T04:37:51;8.10;99.90
61253;DHT22;47127;47.516;8.596;2023-11-22T04:40:16;8.10;99.90
61253;DHT22;47127;47.516;8.596;2023-11-22T04:42:43;8.10;99.90
61253;DHT22;47127;47.516;8.596;2023-11-22T04:45:09;8.10;99.90
61253;DHT22;47127;47.516;8.596;2023-11-22T04:47:35;8.10;99.90
61253;DHT22;47127;47.516;8.596;2023-11-22T04:50:01;8.20;99.90
61253;DHT22;47127;47.516;8.596;2023-11-22T04:52:27;8.10;99.90
61253;DHT22;47127;47.516;8.596;2023-11-22T04:54:52;8.10;99.90
61253;DHT22;47127;47.516;8.596;2023-11-22T04:57:18;8.10;99.90
61253;DHT22;47127;47.516;8.596;2023-11-22T04:59:43;8.10;99.90
61253;DHT22;47127;47.516;8.596;2023-11-22T05:02:09;8.10;99.90
61253;DHT22;47127;47.516;8.596;2023-11-22T05:04:36;8.20;99.90
61253;DHT22;47127;47.516;8.596;2023-11-22T05:07:01;8.20;99.90
61253;DHT22;47127;47.516;8.596;2023-11-22T05:09:28;8.20;99.90
61253;DHT22;47127;47.516;8.596;2023-11-22T05:11:54;8.20;99.90
61253;DHT22;47127;47.516;8.596;2023-11-22T05:14:19;8.20;99.90
61253;DHT22;47127;47.516;8.596;2023-11-22T05:16:45;8.20;99.90
61253;DHT22;47127;47.516;8.596;2023-11-22T05:19:10;8.20;99.90
61253;DHT22;47127;47.516;8.596;2023-11-22T05:21:36;8.10;99.90
61253;DHT22;47127;47.516;8.596;2023-11-22T05:24:02;8.10;99.90
61253;DHT22;47127;47.516;8.596;2023-11-22T05:26:27;8.10;99.90
61253;DHT22;47127;47.516;8.596;2023-11-22T05:28:53;8.20;99.90
61253;DHT22;47127;47.516;8.596;2023-11-22T05:31:20;8.20;99.90
61253;DHT22;47127;47.516;8.596;2023-11-22T05:33:46;8.20;99.90
61253;DHT22;47127;47.516;8.596;2023-11-22T05:36:11;8.20;99.90
61253;DHT22;47127;47.516;8.596;2023-11-22T05:38:37;8.20;99.90
61253;DHT22;47127;47.516;8.596;2023-11-22T05:41:03;8.30;99.90
61253;DHT22;47127;47.516;8.596;2023-11-22T05:43:29;8.20;99.90
61253;DHT22;47127;47.516;8.596;2023-11-22T05:45:54;8.30;99.90
61253;DHT22;47127;47.516;8.596;2023-11-22T05:48:20;8.30;99.90
61253;DHT22;47127;47.516;8.596;2023-11-22T05:50:46;8.30;99.90
61253;DHT22;47127;47.516;8.596;2023-11-22T05:53:12;8.30;99.90
61253;DHT22;47127;47.516;8.596;2023-11-22T05:55:45;8.30;99.90
61253;DHT22;47127;47.516;8.596;2023-11-22T05:58:10;8.20;99.90
61253;DHT22;47127;47.516;8.596;2023-11-22T06:00:37;8.10;99.90
61253;DHT22;47127;47.516;8.596;2023-11-22T06:03:03;8.10;99.90
61253;DHT22;47127;47.516;8.596;2023-11-22T06:05:29;8.10;99.90
61253;DHT22;47127;47.516;8.596;2023-11-22T06:07:56;8.20;99.90
61253;DHT22;47127;47.516;8.596;2023-11-22T06:10:22;8.20;99.90
61253;DHT22;47127;47.516;8.596;2023-11-22T06:12:48;8.20;99.90
61253;DHT22;47127;47.516;8.596;2023-11-22T06:15:13;8.20;99.90
61253;DHT22;47127;47.516;8.596;2023-11-22T06:17:39;8.20;99.90
61253;DHT22;47127;47.516;8.596;2023-11-22T06:20:05;8.10;99.90
61253;DHT22;47127;47.516;8.596;2023-11-22T06:22:32;8.00;99.90
61253;DHT22;47127;47.516;8.596;2023-11-22T06:24:57;7.80;99.90
61253;DHT22;47127;47.516;8.596;2023-11-22T06:27:23;7.70;99.90
61253;DHT22;47127;47.516;8.596;2023-11-22T06:29:49;7.70;99.90
61253;DHT22;47127;47.516;8.596;2023-11-22T06:32:14;7.60;99.90
61253;DHT22;47127;47.516;8.596;2023-11-22T06:34:40;7.60;99.90
61253;DHT22;47127;47.516;8.596;2023-11-22T06:37:05;7.50;99.90
61253;DHT22;47127;47.516;8.596;2023-11-22T06:39:34;7.40;99.90
61253;DHT22;47127;47.516;8.596;2023-11-22T06:42:00;7.30;99.90
61253;DHT22;47127;47.516;8.596;2023-11-22T06:44:25;7.20;99.90
61253;DHT22;47127;47.516;8.596;2023-11-22T06:46:51;7.30;99.90
61253;DHT22;47127;47.516;8.596;2023-11-22T06:49:19;7.20;99.90
61253;DHT22;47127;47.516;8.596;2023-11-22T06:51:44;7.30;99.90
61253;DHT22;47127;47.516;8.596;2023-11-22T06:54:10;7.30;99.90
61253;DHT22;47127;47.516;8.596;2023-11-22T06:56:36;7.30;99.90
61253;DHT22;47127;47.516;8.596;2023-11-22T06:59:01;7.20;99.90
61253;DHT22;47127;47.516;8.596;2023-11-22T07:01:27;7.10;99.90
61253;DHT22;47127;47.516;8.596;2023-11-22T07:03:52;7.00;99.90
61253;DHT22;47127;47.516;8.596;2023-11-22T07:06:18;6.90;99.90
61253;DHT22;47127;47.516;8.596;2023-11-22T07:08:46;6.70;99.90
61253;DHT22;47127;47.516;8.596;2023-11-22T07:11:12;6.60;99.90
61253;DHT22;47127;47.516;8.596;2023-11-22T07:13:39;6.50;99.90
61253;DHT22;47127;47.516;8.596;2023-11-22T07:16:05;6.40;99.90
61253;DHT22;47127;47.516;8.596;2023-11-22T07:18:32;6.40;99.90
61253;DHT22;47127;47.516;8.596;2023-11-22T07:20:59;6.40;99.90
61253;DHT22;47127;47.516;8.596;2023-11-22T07:23:25;6.30;99.90
61253;DHT22;47127;47.516;8.596;2023-11-22T07:25:52;6.30;99.90
61253;DHT22;47127;47.516;8.596;2023-11-22T07:28:18;6.30;99.90
61253;DHT22;47127;47.516;8.596;2023-11-22T07:30:44;6.30;99.90
61253;DHT22;47127;47.516;8.596;2023-11-22T07:33:09;6.30;99.90
61253;DHT22;47127;47.516;8.596;2023-11-22T07:35:36;6.20;99.90
61253;DHT22;47127;47.516;8.596;2023-11-22T07:38:02;6.10;99.90
61253;DHT22;47127;47.516;8.596;2023-11-22T07:40:29;6.10;99.90
61253;DHT22;47127;47.516;8.596;2023-11-22T07:42:54;6.10;99.90
61253;DHT22;47127;47.516;8.596;2023-11-22T07:45:20;6.00;99.90
61253;DHT22;47127;47.516;8.596;2023-11-22T07:47:45;5.90;99.90
61253;DHT22;47127;47.516;8.596;2023-11-22T07:50:12;6.00;99.90
61253;DHT22;47127;47.516;8.596;2023-11-22T07:52:38;5.90;99.90
61253;DHT22;47127;47.516;8.596;2023-11-22T07:55:05;6.00;99.90
61253;DHT22;47127;47.516;8.596;2023-11-22T07:57:34;6.00;99.90
61253;DHT22;47127;47.516;8.596;2023-11-22T07:59:59;5.90;99.90
61253;DHT22;47127;47.516;8.596;2023-11-22T08:02:26;5.90;99.90
61253;DHT22;47127;47.516;8.596;2023-11-22T08:04:52;5.90;99.90
61253;DHT22;47127;47.516;8.596;2023-11-22T08:07:18;5.90;99.90
61253;DHT22;47127;47.516;8.596;2023-11-22T08:09:44;5.90;99.90
61253;DHT22;47127;47.516;8.596;2023-11-22T08:12:10;5.90;99.90
61253;DHT22;47127;47.516;8.596;2023-11-22T08:14:37;5.90;99.90
61253;DHT22;47127;47.516;8.596;2023-11-22T08:17:03;6.00;99.90
61253;DHT22;47127;47.516;8.596;2023-11-22T08:19:30;5.90;99.90
61253;DHT22;47127;47.516;8.596;2023-11-22T08:21:56;6.10;99.90
61253;DHT22;47127;47.516;8.596;2023-11-22T08:24:21;6.00;99.90
61253;DHT22;47127;47.516;8.596;2023-11-22T08:26:47;6.00;99.90
61253;DHT22;47127;47.516;8.596;2023-11-22T08:29:13;6.00;99.90
61253;DHT22;47127;47.516;8.596;2023-11-22T08:31:40;6.00;99.90
61253;DHT22;47127;47.516;8.596;2023-11-22T08:34:05;6.00;99.90
61253;DHT22;47127;47.516;8.596;2023-11-22T08:36:33;6.10;99.90
61253;DHT22;47127;47.516;8.596;2023-11-22T08:39:00;6.10;99.90
61253;DHT22;47127;47.516;8.596;2023-11-22T08:41:27;6.20;99.90
61253;DHT22;47127;47.516;8.596;2023-11-22T08:43:54;6.10;99.90
61253;DHT22;47127;47.516;8.596;2023-11-22T08:46:20;6.00;99.90
61253;DHT22;47127;47.516;8.596;2023-11-22T08:48:47;6.00;99.90
61253;DHT22;47127;47.516;8.596;2023-11-22T08:51:12;6.10;99.90
61253;DHT22;47127;47.516;8.596;2023-11-22T08:53:38;6.00;99.90
61253;DHT22;47127;47.516;8.596;2023-11-22T08:56:04;6.00;99.90
61253;DHT22;47127;47.516;8.596;2023-11-22T08:58:31;5.90;99.90
61253;DHT22;47127;47.516;8.596;2023-11-22T09:00:57;5.90;99.90
61253;DHT22;47127;47.516;8.596;2023-11-22T09:03:23;5.90;99.90
61253;DHT22;47127;47.516;8.596;2023-11-22T09:05:49;5.90;99.90
61253;DHT22;47127;47.516;8.596;2023-11-22T09:08:15;5.90;99.90
61253;DHT22;47127;47.516;8.596;2023-11-22T09:10:44;5.80;99.90
61253;DHT22;47127;47.516;8.596;2023-11-22T09:13:10;5.80;99.90
61253;DHT22;47127;47.516;8.596;2023-11-22T09:15:36;5.80;99.90
61253;DHT22;47127;47.516;8.596;2023-11-22T09:18:04;5.90;99.90
61253;DHT22;47127;47.516;8.596;2023-11-22T09:20:30;6.00;99.90
61253;DHT22;47127;47.516;8.596;2023-11-22T09:22:55;6.00;99.90
61253;DHT22;47127;47.516;8.596;2023-11-22T09:25:23;6.10;99.90
61253;DHT22;47127;47.516;8.596;2023-11-22T09:27:51;6.00;99.90
61253;DHT22;47127;47.516;8.596;2023-11-22T09:30:20;6.00;99.90
61253;DHT22;47127;47.516;8.596;2023-11-22T09:33:03;6.10;99.90
61253;DHT22;47127;47.516;8.596;2023-11-22T09:35:29;6.10;99.90
61253;DHT22;47127;47.516;8.596;2023-11-22T09:38:00;6.10;99.90
61253;DHT22;47127;47.516;8.596;2023-11-22T09:40:29;6.10;99.90
61253;DHT22;47127;47.516;8.596;2023-11-22T09:42:59;6.10;99.90
61253;DHT22;47127;47.516;8.596;2023-11-22T09:45:27;6.10;99.90
61253;DHT22;47127;47.516;8.596;2023-11-22T09:47:55;6.00;99.90
61253;DHT22;47127;47.516;8.596;2023-11-22T09:50:29;6.10;99.90
61253;DHT22;47127;47.516;8.596;2023-11-22T09:52:59;6.20;99.90
61253;DHT22;47127;47.516;8.596;2023-11-22T09:55:28;6.20;99.90
61253;DHT22;47127;47.516;8.596;2023-11-22T09:57:54;6.30;99.90
61253;DHT22;47127;47.516;8.596;2023-11-22T10:00:21;6.30;99.90
61253;DHT22;47127;47.516;8.596;2023-11-22T10:02:47;6.30;99.90
61253;DHT22;47127;47.516;8.596;2023-11-22T10:05:13;6.30;99.90
61253;DHT22;47127;47.516;8.596;2023-11-22T10:07:39;6.40;99.90
61253;DHT22;47127;47.516;8.596;2023-11-22T10:10:05;6.30;99.90
61253;DHT22;47127;47.516;8.596;2023-11-22T10:12:33;6.30;99.90
61253;DHT22;47127;47.516;8.596;2023-11-22T10:15:15;6.20;99.90
61253;DHT22;47127;47.516;8.596;2023-11-22T10:17:57;6.20;99.90
61253;DHT22;47127;47.516;8.596;2023-11-22T10:20:49;6.30;99.90
61253;DHT22;47127;47.516;8.596;2023-11-22T10:23:19;6.30;99.90
61253;DHT22;47127;47.516;8.596;2023-11-22T10:25:49;6.30;99.90
61253;DHT22;47127;47.516;8.596;2023-11-22T10:30:45;6.20;99.90
61253;DHT22;47127;47.516;8.596;2023-11-22T10:33:11;6.20;99.90
61253;DHT22;47127;47.516;8.596;2023-11-22T10:35:48;6.20;99.90
61253;DHT22;47127;47.516;8.596;2023-11-22T10:38:14;6.20;99.90
61253;DHT22;47127;47.516;8.596;2023-11-22T10:40:40;6.20;99.90
61253;DHT22;47127;47.516;8.596;2023-11-22T10:43:08;6.30;99.90
61253;DHT22;47127;47.516;8.596;2023-11-22T10:45:35;6.40;99.90
61253;DHT22;47127;47.516;8.596;2023-11-22T10:48:03;6.50;99.90
61253;DHT22;47127;47.516;8.596;2023-11-22T10:50:29;6.50;99.90
61253;DHT22;47127;47.516;8.596;2023-11-22T10:52:57;6.50;99.90
61253;DHT22;47127;47.516;8.596;2023-11-22T10:55:32;6.50;99.90
61253;DHT22;47127;47.516;8.596;2023-11-22T10:58:04;6.50;99.90
61253;DHT22;47127;47.516;8.596;2023-11-22T11:00:32;6.50;99.90
61253;DHT22;47127;47.516;8.596;2023-11-22T11:03:08;6.50;99.90
61253;DHT22;47127;47.516;8.596;2023-11-22T11:05:39;6.50;99.90
61253;DHT22;47127;47.516;8.596;2023-11-22T11:08:11;6.50;99.90
61253;DHT22;47127;47.516;8.596;2023-11-22T11:10:42;6.40;99.90
61253;DHT22;47127;47.516;8.596;2023-11-22T11:13:08;6.40;99.90
61253;DHT22;47127;47.516;8.596;2023-11-22T11:15:39;6.50;99.90
61253;DHT22;47127;47.516;8.596;2023-11-22T11:18:06;6.40;99.90
61253;DHT22;47127;47.516;8.596;2023-11-22T11:20:54;6.40;99.90
61253;DHT22;47127;47.516;8.596;2023-11-22T11:23:23;6.30;99.90
61253;DHT22;47127;47.516;8.596;2023-11-22T11:25:50;6.30;99.90
61253;DHT22;47127;47.516;8.596;2023-11-22T11:28:16;6.30;99.90
61253;DHT22;47127;47.516;8.596;2023-11-22T11:30:48;6.30;99.90
61253;DHT22;47127;47.516;8.596;2023-11-22T11:33:17;6.20;99.90
61253;DHT22;47127;47.516;8.596;2023-11-22T11:35:50;6.10;99.90
61253;DHT22;47127;47.516;8.596;2023-11-22T11:38:19;6.20;99.90
61253;DHT22;47127;47.516;8.596;2023-11-22T11:40:52;6.10;99.90
61253;DHT22;47127;47.516;8.596;2023-11-22T11:43:39;6.00;99.90
61253;DHT22;47127;47.516;8.596;2023-11-22T11:46:07;6.10;99.90
61253;DHT22;47127;47.516;8.596;2023-11-22T11:48:33;6.00;99.90
61253;DHT22;47127;47.516;8.596;2023-11-22T11:51:00;6.00;99.90
61253;DHT22;47127;47.516;8.596;2023-11-22T11:53:27;6.00;99.90
61253;DHT22;47127;47.516;8.596;2023-11-22T11:55:54;6.00;99.90
61253;DHT22;47127;47.516;8.596;2023-11-22T11:58:19;6.00;99.90
61253;DHT22;47127;47.516;8.596;2023-11-22T12:00:45;6.10;99.90
61253;DHT22;47127;47.516;8.596;2023-11-22T12:03:11;6.20;99.90
61253;DHT22;47127;47.516;8.596;2023-11-22T12:05:38;6.20;99.90
61253;DHT22;47127;47.516;8.596;2023-11-22T12:08:04;6.30;99.90
61253;DHT22;47127;47.516;8.596;2023-11-22T12:10:30;6.40;99.90
61253;DHT22;47127;47.516;8.596;2023-11-22T12:12:56;6.50;99.90
61253;DHT22;47127;47.516;8.596;2023-11-22T12:15:22;6.60;99.90
61253;DHT22;47127;47.516;8.596;2023-11-22T12:17:51;6.80;99.90
61253;DHT22;47127;47.516;8.596;2023-11-22T12:20:19;6.80;99.90
61253;DHT22;47127;47.516;8.596;2023-11-22T12:22:47;6.70;99.90
61253;DHT22;47127;47.516;8.596;2023-11-22T12:25:13;6.60;99.90
61253;DHT22;47127;47.516;8.596;2023-11-22T12:27:43;6.60;99.90
61253;DHT22;47127;47.516;8.596;2023-11-22T12:30:29;6.70;99.90
61253;DHT22;47127;47.516;8.596;2023-11-22T12:32:57;6.70;99.90
61253;DHT22;47127;47.516;8.596;2023-11-22T12:35:23;6.60;99.90
61253;DHT22;47127;47.516;8.596;2023-11-22T12:37:52;6.60;99.90
61253;DHT22;47127;47.516;8.596;2023-11-22T12:40:20;6.50;99.90
61253;DHT22;47127;47.516;8.596;2023-11-22T12:42:52;6.40;99.90
61253;DHT22;47127;47.516;8.596;2023-11-22T12:45:23;6.30;99.90
61253;DHT22;47127;47.516;8.596;2023-11-22T12:47:52;6.30;99.90
61253;DHT22;47127;47.516;8.596;2023-11-22T12:50:37;6.30;99.90
61253;DHT22;47127;47.516;8.596;2023-11-22T12:53:11;6.30;99.90
61253;DHT22;47127;47.516;8.596;2023-11-22T12:55:41;6.30;99.90
61253;DHT22;47127;47.516;8.596;2023-11-22T12:58:07;6.10;99.90
61253;DHT22;47127;47.516;8.596;2023-11-22T13:00:33;6.00;99.90
61253;DHT22;47127;47.516;8.596;2023-11-22T13:02:59;6.00;99.90
61253;DHT22;47127;47.516;8.596;2023-11-22T13:05:27;6.10;99.90
61253;DHT22;47127;47.516;8.596;2023-11-22T13:07:53;6.10;99.90
61253;DHT22;47127;47.516;8.596;2023-11-22T13:10:19;6.10;99.90
61253;DHT22;47127;47.516;8.596;2023-11-22T13:12:52;6.10;99.90
61253;DHT22;47127;47.516;8.596;2023-11-22T13:15:21;6.10;99.90
61253;DHT22;47127;47.516;8.596;2023-11-22T13:17:54;6.10;99.90
61253;DHT22;47127;47.516;8.596;2023-11-22T13:20:27;6.10;99.90
61253;DHT22;47127;47.516;8.596;2023-11-22T13:22:53;6.10;99.90
61253;DHT22;47127;47.516;8.596;2023-11-22T13:25:19;6.10;99.90
61253;DHT22;47127;47.516;8.596;2023-11-22T13:27:48;6.10;99.90
61253;DHT22;47127;47.516;8.596;2023-11-22T13:30:17;6.10;99.90
61253;DHT22;47127;47.516;8.596;2023-11-22T13:32:55;6.10;99.90
61253;DHT22;47127;47.516;8.596;2023-11-22T13:35:25;6.10;99.90
61253;DHT22;47127;47.516;8.596;2023-11-22T13:37:53;6.00;99.90
61253;DHT22;47127;47.516;8.596;2023-11-22T13:40:19;6.00;99.90
61253;DHT22;47127;47.516;8.596;2023-11-22T13:42:49;5.90;99.90
61253;DHT22;47127;47.516;8.596;2023-11-22T13:45:16;5.90;99.90
61253;DHT22;47127;47.516;8.596;2023-11-22T13:47:46;5.80;99.90
61253;DHT22;47127;47.516;8.596;2023-11-22T13:50:15;5.70;99.90
61253;DHT22;47127;47.516;8.596;2023-11-22T13:52:51;5.80;99.90
61253;DHT22;47127;47.516;8.596;2023-11-22T13:55:17;5.70;99.90
61253;DHT22;47127;47.516;8.596;2023-11-22T13:57:53;5.80;99.90
61253;DHT22;47127;47.516;8.596;2023-11-22T14:00:21;5.70;99.90
61253;DHT22;47127;47.516;8.596;2023-11-22T14:02:56;5.70;99.90
61253;DHT22;47127;47.516;8.596;2023-11-22T14:05:22;5.70;99.90
61253;DHT22;47127;47.516;8.596;2023-11-22T14:07:48;5.80;99.90
61253;DHT22;47127;47.516;8.596;2023-11-22T14:10:14;5.90;99.90
61253;DHT22;47127;47.516;8.596;2023-11-22T14:12:44;5.80;99.90
61253;DHT22;47127;47.516;8.596;2023-11-22T14:15:10;5.90;99.90
61253;DHT22;47127;47.516;8.596;2023-11-22T14:17:36;5.80;99.90
61253;DHT22;47127;47.516;8.596;2023-11-22T14:20:05;5.80;99.90
61253;DHT22;47127;47.516;8.596;2023-11-22T14:22:32;5.70;99.90
61253;DHT22;47127;47.516;8.596;2023-11-22T14:24:58;5.60;99.90
61253;DHT22;47127;47.516;8.596;2023-11-22T14:27:23;5.60;99.90
61253;DHT22;47127;47.516;8.596;2023-11-22T14:29:49;5.60;99.90
61253;DHT22;47127;47.516;8.596;2023-11-22T14:32:19;5.60;99.90
61253;DHT22;47127;47.516;8.596;2023-11-22T14:34:44;5.60;99.90
61253;DHT22;47127;47.516;8.596;2023-11-22T14:37:11;5.60;99.90
61253;DHT22;47127;47.516;8.596;2023-11-22T14:39:37;5.50;99.90
61253;DHT22;47127;47.516;8.596;2023-11-22T14:42:02;5.50;99.90
61253;DHT22;47127;47.516;8.596;2023-11-22T14:44:31;5.40;99.90
61253;DHT22;47127;47.516;8.596;2023-11-22T14:46:56;5.40;99.90
61253;DHT22;47127;47.516;8.596;2023-11-22T14:49:23;5.50;99.90
61253;DHT22;47127;47.516;8.596;2023-11-22T14:51:49;5.50;99.90
61253;DHT22;47127;47.516;8.596;2023-11-22T14:54:15;5.50;99.90
61253;DHT22;47127;47.516;8.596;2023-11-22T14:56:40;5.40;99.90
61253;DHT22;47127;47.516;8.596;2023-11-22T14:59:06;5.40;99.90
61253;DHT22;47127;47.516;8.596;2023-11-22T15:01:33;5.30;99.90
61253;DHT22;47127;47.516;8.596;2023-11-22T15:03:59;5.40;99.90
61253;DHT22;47127;47.516;8.596;2023-11-22T15:06:24;5.50;99.90
61253;DHT22;47127;47.516;8.596;2023-11-22T15:08:50;5.60;99.90
61253;DHT22;47127;47.516;8.596;2023-11-22T15:11:16;5.70;99.90
61253;DHT22;47127;47.516;8.596;2023-11-22T15:13:43;5.70;99.90
61253;DHT22;47127;47.516;8.596;2023-11-22T15:16:09;5.60;99.90
61253;DHT22;47127;47.516;8.596;2023-11-22T15:18:38;5.50;99.90
61253;DHT22;47127;47.516;8.596;2023-11-22T15:21:05;5.60;99.90
61253;DHT22;47127;47.516;8.596;2023-11-22T15:23:30;5.50;99.90
61253;DHT22;47127;47.516;8.596;2023-11-22T15:25:56;5.40;99.90
61253;DHT22;47127;47.516;8.596;2023-11-22T15:28:25;5.30;99.90
61253;DHT22;47127;47.516;8.596;2023-11-22T15:30:51;5.30;99.90
61253;DHT22;47127;47.516;8.596;2023-11-22T15:33:24;5.40;99.90
61253;DHT22;47127;47.516;8.596;2023-11-22T15:35:49;5.50;99.90
61253;DHT22;47127;47.516;8.596;2023-11-22T15:38:15;5.60;99.90
61253;DHT22;47127;47.516;8.596;2023-11-22T15:40:40;5.50;99.90
61253;DHT22;47127;47.516;8.596;2023-11-22T15:43:06;5.60;99.90
61253;DHT22;47127;47.516;8.596;2023-11-22T15:45:33;5.60;99.90
61253;DHT22;47127;47.516;8.596;2023-11-22T15:47:59;5.50;99.90